Terminal Aerodrome Forecast
Issued by NWS Mobile, AL

Home | Current Version | Previous Version | Text Only | Print | Product List | Glossary On
Versions: 1 2 3 4 5 6 7 8 9 10 11 12 13 14 15 16 17 18 19 20 21 22 23 24
163
FTUS44 KMOB 261726
TAFPNS
TAF
KPNS 261726Z 2618/2718 14013KT P6SM SCT017 SCT035
     FM271000 12002KT 5SM BR OVC050
     FM271500 14011KT P6SM BKN250=

USA.gov is the U.S. government's official web portal to all federal, state and local government web resources and services.